Time;durP1;ratioP1;P1;durP2;ratioP2;P2;SDS_P1;SDS_P2;PMS_P1;PMS_P2;Temp;Humidity;BMP_temperature;BMP_pressure;BME280_temperature;BME280_humidity;BME280_pressure;Samples;Min_cycle;Max_cycle;Signal;HPM_P1;HPM_P2
2022/08/01 00:02:21;;;;;;;11.53;7.97;;;;;;;14.41;85.73;101655.03;5117797;28;20032;-73
2022/08/01 00:04:46;;;;;;;12.77;6.40;;;;;;;14.35;86.05;101648.50;5116763;28;20127;-73
2022/08/01 00:07:12;;;;;;;12.50;7.17;;;;;;;14.30;86.34;101650.84;5116792;28;20038;-74
2022/08/01 00:09:37;;;;;;;13.37;7.47;;;;;;;14.25;86.99;101647.84;5115934;28;20035;-73
2022/08/01 00:12:04;;;;;;;11.80;7.60;;;;;;;14.18;87.55;101653.03;5115763;28;20028;-75
2022/08/01 00:14:30;;;;;;;15.03;6.93;;;;;;;14.15;87.74;101652.47;5115506;28;20023;-72
2022/08/01 00:16:56;;;;;;;12.43;6.90;;;;;;;14.10;87.60;101652.13;5115783;28;20506;-72
2022/08/01 00:19:21;;;;;;;15.30;6.97;;;;;;;14.05;88.21;101646.44;5115645;28;20028;-72
2022/08/01 00:21:47;;;;;;;15.30;7.43;;;;;;;14.04;88.37;101647.44;5115625;28;20031;-73
2022/08/01 00:24:12;;;;;;;12.33;7.27;;;;;;;13.98;88.33;101640.91;5115705;28;20171;-73
2022/08/01 00:26:38;;;;;;;12.30;6.90;;;;;;;13.71;88.33;101601.00;5115252;28;20039;-73
2022/08/01 00:29:03;;;;;;;9.30;7.20;;;;;;;13.90;88.91;101644.41;5114122;28;20028;-73
2022/08/01 00:31:29;;;;;;;13.43;7.30;;;;;;;13.86;88.89;101629.63;5115406;28;20129;-72
2022/08/01 00:33:54;;;;;;;14.20;7.33;;;;;;;13.94;88.93;101651.09;5115391;28;20483;-73
2022/08/01 00:36:20;;;;;;;12.63;6.77;;;;;;;13.92;89.09;101650.44;5115565;28;20534;-73
2022/08/01 00:38:46;;;;;;;12.87;7.50;;;;;;;13.91;89.39;101654.13;5116697;28;20046;-73
2022/08/01 00:41:12;;;;;;;15.87;8.10;;;;;;;13.90;89.50;101654.28;5115665;28;20028;-71
2022/08/01 00:43:37;;;;;;;18.20;7.23;;;;;;;13.90;89.22;101648.94;5126200;28;20035;-71
2022/08/01 00:46:03;;;;;;;11.00;8.73;;;;;;;13.88;89.34;101649.09;5126909;28;20043;-72
2022/08/01 00:48:28;;;;;;;14.57;7.47;;;;;;;13.88;89.45;101649.09;5126463;28;20035;-73
2022/08/01 00:50:54;;;;;;;15.33;7.57;;;;;;;13.84;89.43;101645.03;5115662;28;20059;-72
2022/08/01 00:53:20;;;;;;;12.33;7.60;;;;;;;13.87;89.64;101655.41;5113944;28;20042;-73
2022/08/01 00:55:47;;;;;;;20.40;8.83;;;;;;;13.84;89.68;101647.72;5115138;27;20062;-72
2022/08/01 00:58:13;;;;;;;22.00;8.83;;;;;;;13.75;89.93;101635.31;5114963;28;20038;-73
2022/08/01 01:00:38;;;;;;;18.40;8.77;;;;;;;13.86;89.99;101652.91;5114699;28;20032;-73
2022/08/01 01:03:04;;;;;;;15.77;7.60;;;;;;;13.85;89.98;101653.91;5116443;28;20035;-72
2022/08/01 01:05:45;;;;;;;15.73;8.33;;;;;;;13.75;90.32;101645.19;5127407;28;20039;-72
2022/08/01 01:08:19;;;;;;;17.47;8.00;;;;;;;13.85;90.54;101656.59;5127735;28;20421;-72
2022/08/01 01:11:01;;;;;;;16.77;8.20;;;;;;;13.86;90.74;101656.41;5122006;28;20122;-73
2022/08/01 01:13:32;;;;;;;21.10;8.77;;;;;;;13.84;90.76;101650.38;5115297;28;20122;-72
2022/08/01 01:16:04;;;;;;;17.33;8.87;;;;;;;13.84;91.00;101652.22;5114887;28;20416;-73
2022/08/01 01:18:42;;;;;;;17.53;9.07;;;;;;;13.87;91.01;101652.72;5114693;28;20071;-72
2022/08/01 01:21:17;;;;;;;16.48;9.10;;;;;;;13.86;91.28;101653.75;5114637;28;20024;-72
2022/08/01 01:24:07;;;;;;;17.63;9.37;;;;;;;13.87;91.02;101659.94;5114443;28;20066;-72
2022/08/01 01:26:59;;;;;;;14.67;8.87;;;;;;;13.90;90.82;101655.13;5115092;27;20410;-72
2022/08/01 01:29:27;;;;;;;13.03;9.30;;;;;;;13.88;90.70;101645.56;5110996;28;20540;-72
2022/08/01 01:32:02;;;;;;;15.03;8.30;;;;;;;13.92;91.33;101641.56;5115330;28;20122;-73
2022/08/01 01:34:31;;;;;;;15.20;10.23;;;;;;;13.92;90.83;101639.72;5114722;28;20457;-73
2022/08/01 01:36:59;;;;;;;18.17;9.47;;;;;;;13.89;90.56;101624.00;5114309;28;20089;-72
2022/08/01 01:39:28;;;;;;;19.13;8.35;;;;;;;13.92;90.96;101629.00;5112789;28;20066;-74
2022/08/01 01:41:54;;;;;;;;;;;;;;;14.02;90.58;101636.06;5114891;28;20043;-73
2022/08/01 01:44:20;;;;;;;14.17;9.07;;;;;;;13.94;90.60;101616.28;5114182;27;19959;-72
2022/08/01 01:46:48;;;;;;;18.80;9.17;;;;;;;14.02;90.33;101622.66;5114450;28;20525;-73
2022/08/01 01:49:15;;;;;;;22.38;9.57;;;;;;;14.04;90.59;101623.34;5114217;28;20037;-72
2022/08/01 01:51:43;;;;;;;15.70;8.63;;;;;;;14.04;90.46;101620.66;5113981;28;20039;-72
2022/08/01 01:54:09;;;;;;;19.70;8.32;;;;;;;14.02;90.40;101620.81;5114119;28;20039;-72
2022/08/01 01:56:48;;;;;;;16.90;9.00;;;;;;;14.07;90.51;101628.38;5112590;28;20036;-73
2022/08/01 01:59:24;;;;;;;17.25;8.55;;;;;;;14.08;90.42;101620.16;5114107;28;20041;-72
2022/08/01 02:01:52;;;;;;;13.93;9.90;;;;;;;14.11;90.57;101619.00;5114134;28;20043;-74
2022/08/01 02:04:20;;;;;;;16.85;9.85;;;;;;;14.14;90.25;101618.66;5114683;28;20066;-73
2022/08/01 02:06:47;;;;;;;19.02;8.98;;;;;;;14.14;90.47;101619.50;5113868;28;20043;-73
2022/08/01 02:09:18;;;;;;;16.50;8.93;;;;;;;14.15;90.33;101610.47;5116413;28;20402;-72
2022/08/01 02:11:45;;;;;;;13.17;9.20;;;;;;;14.14;90.17;101614.13;5122678;28;20032;-71
2022/08/01 02:14:12;;;;;;;14.47;8.83;;;;;;;14.22;90.57;101621.38;5131674;28;20031;-72
2022/08/01 02:16:41;;;;;;;14.80;8.40;;;;;;;14.24;90.27;101622.03;5130104;27;20038;-72
2022/08/01 02:19:07;;;;;;;10.90;7.63;;;;;;;14.31;90.30;101608.81;5123929;28;20044;-73
2022/08/01 02:21:39;;;;;;;16.30;9.30;;;;;;;14.36;90.02;101612.66;5115832;28;20035;-73
2022/08/01 02:24:16;;;;;;;22.03;8.40;;;;;;;14.43;89.75;101610.19;5115215;28;20429;-72
2022/08/01 02:26:47;;;;;;;20.52;8.27;;;;;;;14.48;89.59;101611.38;5115798;28;20035;-72
2022/08/01 02:29:18;;;;;;;17.17;9.00;;;;;;;14.49;89.59;101607.69;5114216;28;20063;-73
2022/08/01 02:31:46;;;;;;;17.47;8.37;;;;;;;14.52;89.28;101607.34;5123886;28;20095;-72
2022/08/01 02:34:16;;;;;;;18.80;8.48;;;;;;;14.63;88.82;101610.69;5128750;28;20125;-74
2022/08/01 02:36:45;;;;;;;13.07;7.43;;;;;;;14.64;88.50;101598.97;5117905;28;20122;-73
2022/08/01 02:39:14;;;;;;;13.67;7.97;;;;;;;14.73;88.81;101611.34;5113457;28;20039;-72
2022/08/01 02:41:44;;;;;;;17.20;8.17;;;;;;;14.75;88.49;101610.19;5114358;28;20050;-72
2022/08/01 02:44:18;;;;;;;18.00;8.37;;;;;;;14.81;88.18;101611.34;5116830;28;20078;-72
2022/08/01 02:46:51;;;;;;;17.83;8.93;;;;;;;14.91;87.71;101620.03;5123386;28;20188;-72
2022/08/01 02:49:19;;;;;;;13.00;7.33;;;;;;;14.95;88.04;101624.06;5114796;28;20058;-71
2022/08/01 02:51:47;;;;;;;23.80;7.45;;;;;;;15.00;87.34;101621.69;5113562;28;20069;-72
2022/08/01 02:54:17;;;;;;;14.75;8.70;;;;;;;14.95;87.39;101607.97;5113587;28;20139;-71
2022/08/01 02:56:45;;;;;;;12.20;8.70;;;;;;;15.09;87.17;101626.06;5113741;28;20043;-72
2022/08/01 02:59:15;;;;;;;19.13;9.00;;;;;;;15.10;86.97;101624.22;5115806;28;20128;-72
2022/08/01 03:01:44;;;;;;;10.90;8.13;;;;;;;15.14;86.89;101629.06;5115079;28;20131;-72
2022/08/01 03:04:11;;;;;;;17.07;8.97;;;;;;;15.10;86.70;101616.16;5114979;28;20042;-73
2022/08/01 03:06:39;;;;;;;15.47;8.10;;;;;;;15.07;87.00;101611.97;5114476;28;20078;-71
2022/08/01 03:09:06;;;;;;;8.87;7.70;;;;;;;15.19;86.99;101618.66;5115197;28;20031;-73
2022/08/01 03:11:33;;;;;;;12.90;7.50;;;;;;;15.27;86.38;101622.31;5114155;28;20066;-72
2022/08/01 03:14:04;;;;;;;9.70;7.43;;;;;;;15.38;86.24;101613.91;5112625;28;20035;-72
2022/08/01 03:16:33;;;;;;;12.00;7.80;;;;;;;15.58;86.02;101617.00;5112792;28;20028;-73
2022/08/01 03:19:01;;;;;;;10.90;8.18;;;;;;;15.91;84.38;101621.25;5112544;28;20042;-72
2022/08/01 03:21:28;;;;;;;16.33;7.80;;;;;;;16.33;82.79;101619.97;5112804;28;20039;-72
2022/08/01 03:23:57;;;;;;;12.93;8.50;;;;;;;17.11;79.27;101616.94;5112561;28;20483;-72
2022/08/01 03:26:27;;;;;;;13.90;7.80;;;;;;;18.22;75.05;101605.91;5112419;28;20043;-71
2022/08/01 03:29:06;;;;;;;16.03;7.80;;;;;;;18.76;71.82;101609.94;5111611;28;20514;-72
2022/08/01 03:31:38;;;;;;;15.17;8.47;;;;;;;18.84;71.79;101618.72;5112658;28;20032;-72
2022/08/01 03:34:05;;;;;;;13.10;8.33;;;;;;;19.07;70.51;101612.22;5111155;28;20420;-73
2022/08/01 03:36:33;;;;;;;17.30;8.50;;;;;;;18.74;71.16;101615.53;5112865;28;20324;-72
2022/08/01 03:39:03;;;;;;;14.38;7.70;;;;;;;18.23;73.24;101604.88;5112483;28;20043;-73
2022/08/01 03:41:33;;;;;;;18.83;8.88;;;;;;;17.71;75.63;101601.59;5112464;28;20043;-73
2022/08/01 03:44:07;;;;;;;16.65;8.15;;;;;;;17.31;76.95;101611.81;5112395;28;20035;-72
2022/08/01 03:46:40;;;;;;;12.77;8.30;;;;;;;17.06;78.56;101621.19;5112294;28;20066;-73
2022/08/01 03:49:11;;;;;;;12.47;8.23;;;;;;;16.78;79.51;101608.38;5112216;28;20119;-72
2022/08/01 03:51:38;;;;;;;20.07;8.10;;;;;;;16.67;79.84;101604.25;5112290;28;20035;-74
2022/08/01 03:54:06;;;;;;;13.47;8.40;;;;;;;16.71;80.24;101610.91;5112156;28;20107;-71
2022/08/01 03:56:33;;;;;;;10.82;7.53;;;;;;;16.80;79.91;101611.69;5112241;28;20031;-72
2022/08/01 03:59:03;;;;;;;15.80;7.88;;;;;;;16.82;80.27;101609.66;5112137;28;20070;-73
2022/08/01 04:01:30;;;;;;;13.20;8.63;;;;;;;16.85;79.37;101609.28;5112041;28;20406;-72
2022/08/01 04:03:59;;;;;;;16.35;8.43;;;;;;;16.80;79.93;101600.94;5111908;28;20483;-72
2022/08/01 04:06:24;;;;;;;19.25;8.45;;;;;;;16.91;80.00;101607.72;5112165;28;20032;-72
2022/08/01 04:08:56;;;;;;;16.98;8.88;;;;;;;17.05;78.94;101604.19;5112240;28;20054;-72
2022/08/01 04:11:24;;;;;;;12.25;8.13;;;;;;;17.15;78.56;101609.31;5112005;28;20482;-73
2022/08/01 04:13:52;;;;;;;18.13;9.30;;;;;;;17.20;78.18;101612.28;5110642;28;20410;-73
2022/08/01 04:16:19;;;;;;;18.73;9.95;;;;;;;17.38;77.89;101614.63;5112203;28;20032;-72
2022/08/01 04:18:44;;;;;;;12.85;8.50;;;;;;;17.79;76.17;101605.03;5116451;28;20043;-72
2022/08/01 04:21:10;;;;;;;15.23;10.52;;;;;;;18.52;74.11;101605.78;5115076;28;20061;-73
2022/08/01 04:23:39;;;;;;;13.93;7.57;;;;;;;19.36;70.67;101595.78;5115708;28;20035;-73
2022/08/01 04:26:06;;;;;;;18.50;8.25;;;;;;;19.95;67.60;101595.22;5115722;28;20039;-72
2022/08/01 04:28:34;;;;;;;13.35;8.07;;;;;;;20.10;67.21;101604.00;5114764;28;20036;-74
2022/08/01 04:31:00;;;;;;;18.02;9.70;;;;;;;19.80;67.37;101608.06;5116662;28;20035;-74
2022/08/01 04:33:29;;;;;;;11.50;7.13;;;;;;;19.21;69.52;101614.00;5117598;28;20070;-72
2022/08/01 04:35:58;;;;;;;10.40;7.18;;;;;;;18.80;71.28;101611.22;5117348;28;20151;-73
2022/08/01 04:38:27;;;;;;;10.90;7.25;;;;;;;18.61;71.65;101574.94;5121908;28;20015;-72
2022/08/01 04:40:54;;;;;;;12.25;7.85;;;;;;;18.90;70.99;101617.09;5129760;28;20039;-73
2022/08/01 04:43:20;;;;;;;8.05;6.55;;;;;;;19.13;70.33;101612.28;5126651;28;20020;-74
2022/08/01 04:45:47;;;;;;;12.38;6.82;;;;;;;19.27;69.57;101605.09;5136687;28;20012;-72
2022/08/01 04:48:16;;;;;;;14.35;6.50;;;;;;;19.28;69.59;101614.03;5123511;28;20058;-72
2022/08/01 04:50:42;;;;;;;15.95;6.13;;;;;;;19.06;70.29;101606.00;5116169;28;20039;-73
2022/08/01 04:53:16;;;;;;;11.25;6.70;;;;;;;18.99;71.16;101612.38;5115416;28;20114;-73
2022/08/01 04:55:43;;;;;;;11.85;6.15;;;;;;;19.09;70.34;101607.50;5114901;28;20035;-72
2022/08/01 04:58:10;;;;;;;19.55;6.03;;;;;;;19.37;69.28;101610.13;5115649;27;20474;-74
2022/08/01 05:00:36;;;;;;;8.88;5.38;;;;;;;19.58;68.72;101615.47;5114984;28;20448;-72
2022/08/01 05:03:02;;;;;;;12.02;4.57;;;;;;;19.63;68.10;101610.28;5115260;28;20035;-72
2022/08/01 05:05:28;;;;;;;8.30;5.18;;;;;;;19.74;67.97;101606.19;5115111;28;20496;-75
2022/08/01 05:07:53;;;;;;;9.25;5.38;;;;;;;19.97;67.22;101609.38;5114678;28;20035;-73
2022/08/01 05:10:19;;;;;;;13.25;5.85;;;;;;;19.93;65.94;101589.16;5115680;28;20039;-73
2022/08/01 05:12:46;;;;;;;10.07;4.35;;;;;;;19.91;66.12;101604.75;5115300;28;20034;-72
2022/08/01 05:15:11;;;;;;;11.15;4.82;;;;;;;19.87;66.54;101608.91;5120566;28;20084;-72
2022/08/01 05:17:37;;;;;;;7.15;4.80;;;;;;;19.76;66.33;101601.41;5126084;28;20055;-72
2022/08/01 05:20:03;;;;;;;7.88;3.78;;;;;;;19.54;67.09;101602.56;5127146;27;20032;-71
2022/08/01 05:22:29;;;;;;;7.78;4.15;;;;;;;19.32;67.71;101593.69;5117966;28;20119;-73
2022/08/01 05:24:54;;;;;;;7.90;3.63;;;;;;;19.22;68.55;101588.66;5114231;28;20034;-73
2022/08/01 05:27:20;;;;;;;8.07;4.18;;;;;;;19.26;68.69;101595.31;5114681;28;20114;-73
2022/08/01 05:29:46;;;;;;;8.93;3.83;;;;;;;19.24;67.91;101586.59;5113746;28;20031;-73
2022/08/01 05:32:12;;;;;;;9.02;4.22;;;;;;;19.15;68.03;101577.81;5114519;28;20058;-72
2022/08/01 05:34:38;;;;;;;9.35;4.15;;;;;;;19.12;68.13;101583.63;5114786;28;20043;-73
2022/08/01 05:37:04;;;;;;;7.70;3.60;;;;;;;19.18;68.00;101582.00;5123805;28;20134;-72
2022/08/01 05:39:29;;;;;;;8.88;3.95;;;;;;;19.30;68.00;101580.38;5129592;28;20521;-72
2022/08/01 05:41:55;;;;;;;7.85;3.42;;;;;;;19.42;67.51;101584.19;5125553;28;20032;-73
2022/08/01 05:44:20;;;;;;;14.40;5.20;;;;;;;19.54;67.84;101580.94;5117551;28;20027;-74
2022/08/01 05:46:46;;;;;;;8.98;3.92;;;;;;;19.59;66.88;101573.88;5114254;28;20050;-72
2022/08/01 05:49:11;;;;;;;10.30;4.47;;;;;;;19.52;66.23;101572.19;5113939;28;20063;-74
2022/08/01 05:51:37;;;;;;;9.55;4.90;;;;;;;19.52;66.52;101574.88;5114162;28;20118;-73
2022/08/01 05:54:03;;;;;;;7.93;4.55;;;;;;;19.56;66.97;101570.75;5113302;28;20028;-73
2022/08/01 05:56:28;;;;;;;15.25;4.45;;;;;;;19.59;66.95;101568.47;5114139;28;20039;-76
2022/08/01 05:58:57;;;;;;;9.57;3.58;;;;;;;19.68;66.13;101569.16;5115702;27;20042;-77
2022/08/01 06:01:26;;;;;;;11.48;4.75;;;;;;;19.71;65.57;101563.34;5114821;28;20039;-77
2022/08/01 06:03:54;;;;;;;;;;;;;;;19.80;65.49;101570.22;5114627;28;20023;-72
2022/08/01 06:06:20;;;;;;;8.30;4.13;;;;;;;19.67;65.53;101567.50;5113757;28;19972;-72
2022/08/01 06:08:46;;;;;;;6.43;3.55;;;;;;;19.66;65.97;101572.06;5114211;28;20028;-72
2022/08/01 06:11:12;;;;;;;10.10;3.97;;;;;;;19.73;66.16;101578.31;5114122;28;20039;-72
2022/08/01 06:13:37;;;;;;;9.45;3.40;;;;;;;19.85;65.46;101561.50;5113847;28;20039;-73
2022/08/01 06:16:03;;;;;;;7.38;3.70;;;;;;;19.84;64.12;101568.78;5113714;28;20035;-72
2022/08/01 06:18:29;;;;;;;9.25;3.83;;;;;;;19.81;65.08;101566.47;5113286;28;20414;-71
2022/08/01 06:20:55;;;;;;;8.70;3.25;;;;;;;19.87;64.62;101565.66;5113479;28;20035;-71
2022/08/01 06:23:21;;;;;;;8.77;3.63;;;;;;;19.85;64.42;101567.75;5113181;28;20024;-74
2022/08/01 06:25:47;;;;;;;8.20;2.92;;;;;;;19.83;64.52;101568.97;5113149;28;20043;-75
2022/08/01 06:28:13;;;;;;;7.47;3.67;;;;;;;19.87;64.49;101564.81;5113323;28;20035;-71
2022/08/01 06:30:39;;;;;;;7.13;3.03;;;;;;;19.96;64.27;101556.34;5113204;28;20402;-70
2022/08/01 06:33:04;;;;;;;7.30;2.92;;;;;;;19.94;64.44;101562.97;5113265;28;20184;-73
2022/08/01 06:35:30;;;;;;;5.95;2.80;;;;;;;20.05;64.52;101560.50;5111620;28;20055;-72
2022/08/01 06:37:57;;;;;;;6.47;3.33;;;;;;;20.15;64.44;101568.22;5113162;28;20047;-73
2022/08/01 06:40:23;;;;;;;5.80;3.03;;;;;;;20.17;64.07;101555.31;5112917;28;20036;-71
2022/08/01 06:42:49;;;;;;;5.40;2.83;;;;;;;20.25;64.29;101565.13;5113313;28;20036;-72
2022/08/01 06:45:15;;;;;;;10.50;3.05;;;;;;;20.19;64.43;101561.34;5113080;28;20047;-71
2022/08/01 06:47:44;;;;;;;10.40;4.43;;;;;;;19.93;65.38;101534.28;5113226;28;20035;-71
2022/08/01 06:50:10;;;;;;;9.27;5.07;;;;;;;20.18;65.99;101572.38;5113105;28;20047;-74
2022/08/01 06:52:36;;;;;;;8.68;3.20;;;;;;;20.18;65.17;101577.78;5112662;28;20071;-72
2022/08/01 06:55:02;;;;;;;9.25;2.65;;;;;;;19.99;65.14;101558.63;5112831;28;20554;-74
2022/08/01 06:57:29;;;;;;;7.38;2.65;;;;;;;20.18;65.26;101580.50;5113171;28;20036;-69
2022/08/01 06:59:55;;;;;;;15.20;3.28;;;;;;;20.16;65.73;101550.13;5113138;28;20131;-72
2022/08/01 07:02:21;;;;;;;6.10;3.58;;;;;;;20.41;65.19;101570.97;5113119;28;20078;-72
2022/08/01 07:04:46;;;;;;;9.40;2.72;;;;;;;20.41;63.97;101567.44;5112453;28;20067;-72
2022/08/01 07:07:12;;;;;;;5.40;2.17;;;;;;;20.40;63.75;101573.88;5111293;28;20131;-73
2022/08/01 07:09:40;;;;;;;6.97;3.05;;;;;;;20.38;63.55;101576.78;5112684;28;20031;-75
2022/08/01 07:12:06;;;;;;;;;;;;;;;20.54;63.99;101567.47;5113323;28;20130;-70
2022/08/01 07:14:31;;;;;;;8.18;3.05;;;;;;;20.56;63.52;101548.31;5113120;28;20019;-74
2022/08/01 07:16:57;;;;;;;7.95;3.17;;;;;;;20.78;63.03;101567.81;5112532;28;20065;-73
2022/08/01 07:19:22;;;;;;;10.30;3.10;;;;;;;20.81;63.15;101557.41;5111208;28;20039;-72
2022/08/01 07:21:48;;;;;;;7.75;2.65;;;;;;;20.77;62.80;101522.84;5112314;28;20104;-72
2022/08/01 07:24:14;;;;;;;9.27;2.65;;;;;;;21.14;61.95;101562.78;5112720;28;20114;-71
2022/08/01 07:26:44;;;;;;;6.10;2.78;;;;;;;21.17;62.78;101554.22;5112457;28;20047;-73
2022/08/01 07:29:10;;;;;;;4.72;2.60;;;;;;;21.18;61.35;101561.31;5112392;28;20156;-71
2022/08/01 07:31:36;;;;;;;7.72;2.80;;;;;;;21.24;62.42;101556.94;5112078;28;20135;-78
2022/08/01 07:34:01;;;;;;;9.57;3.63;;;;;;;21.33;61.89;101561.88;5111958;28;20028;-73
2022/08/01 07:36:27;;;;;;;8.65;3.25;;;;;;;21.26;62.12;101539.41;5112291;28;20048;-72
2022/08/01 07:38:52;;;;;;;10.63;2.55;;;;;;;21.38;61.71;101552.28;5112381;28;20397;-76
2022/08/01 07:41:18;;;;;;;7.45;3.00;;;;;;;21.50;61.20;101550.59;5112310;28;20023;-73
2022/08/01 07:43:43;;;;;;;11.38;3.33;;;;;;;21.46;60.83;101555.59;5112596;28;20072;-72
2022/08/01 07:46:09;;;;;;;13.60;2.90;;;;;;;21.51;60.57;101554.97;5112186;28;20043;-71
2022/08/01 07:48:35;;;;;;;7.30;2.20;;;;;;;21.47;60.19;101556.44;5112061;28;20071;-71
2022/08/01 07:51:00;;;;;;;5.68;2.45;;;;;;;21.45;59.27;101558.53;5111925;28;20181;-70
2022/08/01 07:53:26;;;;;;;9.02;2.42;;;;;;;21.37;59.56;101553.34;5115600;28;20093;-72
2022/08/01 07:55:52;;;;;;;8.20;2.33;;;;;;;21.31;59.53;101557.72;5116185;28;20040;-69
2022/08/01 07:58:17;;;;;;;4.13;2.45;;;;;;;21.27;59.28;101551.09;5115966;28;20043;-69
2022/08/01 08:00:43;;;;;;;6.90;2.25;;;;;;;21.42;59.65;101545.41;5115980;28;20078;-72
2022/08/01 08:03:10;;;;;;;6.78;2.28;;;;;;;21.60;58.35;101550.94;5115805;28;20046;-70
2022/08/01 08:05:35;;;;;;;6.45;2.38;;;;;;;21.56;57.24;101541.59;5115559;28;20491;-71
2022/08/01 08:08:08;;;;;;;4.32;2.13;;;;;;;21.62;57.67;101544.25;5116573;28;20039;-69
2022/08/01 08:10:34;;;;;;;6.85;2.20;;;;;;;21.80;58.37;101542.72;5116134;28;20402;-72
2022/08/01 08:13:01;;;;;;;4.82;1.75;;;;;;;21.99;57.92;101539.06;5115941;28;20379;-71
2022/08/01 08:15:27;;;;;;;6.97;1.63;;;;;;;21.99;58.08;101547.19;5115913;28;20034;-71
2022/08/01 08:17:52;;;;;;;9.30;2.15;;;;;;;21.96;57.81;101545.72;5115544;28;20111;-70
2022/08/01 08:20:18;;;;;;;3.70;1.90;;;;;;;21.96;57.78;101553.84;5115838;28;20123;-72
2022/08/01 08:22:43;;;;;;;6.30;2.40;;;;;;;21.80;57.40;101540.81;5115661;28;20043;-72
2022/08/01 08:25:09;;;;;;;5.13;2.38;;;;;;;21.56;57.80;101536.16;5115621;28;20039;-69
2022/08/01 08:27:36;;;;;;;8.40;1.98;;;;;;;21.67;57.91;101546.31;5115567;28;20410;-71
2022/08/01 08:30:05;;;;;;;4.93;1.60;;;;;;;21.64;57.42;101546.75;5115260;28;20066;-70
2022/08/01 08:32:30;;;;;;;6.47;2.28;;;;;;;21.64;57.98;101552.16;5115341;28;20039;-71
2022/08/01 08:34:56;;;;;;;4.32;1.85;;;;;;;21.47;57.37;101538.28;5114990;28;20468;-70
2022/08/01 08:37:22;;;;;;;9.32;3.78;;;;;;;21.54;58.56;101532.84;5114109;28;20047;-71
2022/08/01 08:39:48;;;;;;;6.70;2.55;;;;;;;21.68;58.16;101545.25;5115225;28;20046;-72
2022/08/01 08:42:13;;;;;;;12.73;3.08;;;;;;;21.67;58.50;101527.34;5114200;28;20118;-71
2022/08/01 08:44:42;;;;;;;16.83;3.75;;;;;;;21.68;59.01;101542.53;5115102;28;20039;-71
2022/08/01 08:47:11;;;;;;;18.95;3.97;;;;;;;21.57;58.55;101540.53;5114884;28;20112;-72
2022/08/01 08:49:37;;;;;;;7.10;3.38;;;;;;;21.52;58.64;101537.66;5115339;28;20065;-74
2022/08/01 08:52:03;;;;;;;11.85;4.05;;;;;;;21.51;58.72;101544.13;5115153;28;20120;-72
2022/08/01 08:54:31;;;;;;;9.10;4.20;;;;;;;21.33;59.22;101529.38;5115223;28;20102;-69
2022/08/01 08:56:58;;;;;;;11.57;4.55;;;;;;;21.37;59.52;101529.78;5114913;28;20043;-73
2022/08/01 08:59:24;;;;;;;7.10;4.13;;;;;;;21.48;59.54;101533.72;5113495;28;20437;-70
2022/08/01 09:01:50;;;;;;;9.88;4.22;;;;;;;21.49;59.96;101527.25;5114787;28;20035;-70
2022/08/01 09:04:22;;;;;;;8.10;5.55;;;;;;;21.48;59.28;101536.41;5112248;28;20516;-67
2022/08/01 09:06:47;;;;;;;5.47;4.15;;;;;;;21.47;59.19;101538.28;5114700;28;20122;-69
2022/08/01 09:09:13;;;;;;;8.55;3.85;;;;;;;21.61;59.61;101528.22;5114752;28;20126;-71
2022/08/01 09:11:39;;;;;;;8.82;3.80;;;;;;;21.75;59.38;101527.09;5114631;28;20035;-70
2022/08/01 09:14:12;;;;;;;11.95;3.72;;;;;;;21.76;59.20;101533.34;5114466;28;20479;-72
2022/08/01 09:16:43;;;;;;;5.05;2.72;;;;;;;21.73;57.73;101529.19;5116223;28;20028;-70
2022/08/01 09:19:18;;;;;;;5.43;2.50;;;;;;;21.74;58.50;101533.56;5114684;28;20096;-68
2022/08/01 09:22:03;;;;;;;8.50;2.97;;;;;;;21.75;59.28;101526.28;5114379;28;20027;-72
2022/08/01 09:24:31;;;;;;;5.32;2.40;;;;;;;21.79;58.08;101527.50;5114397;28;20034;-70
2022/08/01 09:26:58;;;;;;;9.07;2.50;;;;;;;21.73;57.14;101529.19;5114433;28;20028;-70
2022/08/01 09:29:29;;;;;;;6.25;3.53;;;;;;;21.74;57.13;101513.75;5114711;28;20039;-70
2022/08/01 09:31:56;;;;;;;3.72;1.40;;;;;;;21.91;56.48;101520.31;5114348;28;20051;-71
2022/08/01 09:34:32;;;;;;;7.10;1.80;;;;;;;22.16;56.46;101529.34;5114077;28;20494;-71
2022/08/01 09:37:01;;;;;;;18.73;2.83;;;;;;;22.24;55.06;101511.94;5114370;28;20040;-72
2022/08/01 09:39:37;;;;;;;4.05;2.03;;;;;;;22.36;55.37;101512.91;5114831;28;20043;-70
2022/08/01 09:42:20;;;;;;;5.18;1.73;;;;;;;22.44;54.47;101514.50;5121918;28;20523;-72
2022/08/01 09:44:45;;;;;;;6.97;2.33;;;;;;;22.31;53.18;101503.78;5120781;28;20062;-67
2022/08/01 09:47:12;;;;;;;4.70;1.58;;;;;;;22.13;53.47;101504.53;5119271;28;20490;-71
2022/08/01 09:49:39;;;;;;;6.47;1.73;;;;;;;21.95;53.83;101495.25;5113681;28;20491;-70
2022/08/01 09:52:23;;;;;;;6.15;1.67;;;;;;;21.99;54.89;101506.50;5113951;28;20482;-69
2022/08/01 09:54:52;;;;;;;6.15;2.00;;;;;;;21.88;55.11;101499.88;5114068;28;20092;-73
2022/08/01 09:57:19;;;;;;;3.00;1.88;;;;;;;21.98;55.81;101504.00;5112666;28;20036;-68
2022/08/01 09:59:47;;;;;;;5.18;2.13;;;;;;;22.08;56.65;101504.38;5113695;28;20031;-71
2022/08/01 10:02:25;;;;;;;6.47;2.53;;;;;;;22.19;55.91;101499.06;5114289;28;20406;-72
2022/08/01 10:04:52;;;;;;;5.43;2.30;;;;;;;22.32;55.46;101494.59;5115164;28;20047;-72
2022/08/01 10:07:18;;;;;;;7.57;2.05;;;;;;;22.43;55.76;101501.97;5125140;28;20150;-69
2022/08/01 10:09:45;;;;;;;4.38;2.00;;;;;;;22.55;55.59;101494.75;5116130;28;20036;-71
2022/08/01 10:12:14;;;;;;;7.00;2.15;;;;;;;22.49;53.96;101499.19;5114152;28;20471;-69
2022/08/01 10:14:40;;;;;;;5.03;2.03;;;;;;;22.38;54.38;101480.94;5116501;28;20027;-72
2022/08/01 10:17:12;;;;;;;8.00;2.22;;;;;;;22.45;54.02;101500.69;5115198;28;20047;-68
2022/08/01 10:19:41;;;;;;;2.80;1.80;;;;;;;22.50;54.67;101497.31;5114095;28;20058;-69
2022/08/01 10:22:09;;;;;;;3.42;1.55;;;;;;;22.54;53.59;101499.34;5117974;28;20502;-70
2022/08/01 10:24:40;;;;;;;2.63;1.73;;;;;;;22.60;53.58;101499.53;5112208;28;20038;-71
2022/08/01 10:27:09;;;;;;;5.78;1.90;;;;;;;22.71;54.21;101493.34;5113090;28;20047;-69
2022/08/01 10:29:56;;;;;;;3.03;1.60;;;;;;;23.01;54.66;101498.91;5111859;28;20035;-71
2022/08/01 10:32:23;;;;;;;3.00;1.73;;;;;;;23.13;53.01;101497.06;5114535;28;20032;-71
2022/08/01 10:34:49;;;;;;;2.67;1.27;;;;;;;23.08;52.53;101497.75;5113170;28;20517;-72
2022/08/01 10:37:17;;;;;;;6.07;1.58;;;;;;;22.96;52.88;101496.88;5115301;28;20131;-71
2022/08/01 10:39:43;;;;;;;1.90;1.50;;;;;;;23.01;53.72;101491.59;5116528;28;20043;-69
2022/08/01 10:42:11;;;;;;;4.05;1.73;;;;;;;22.99;54.35;101493.69;5119178;28;20036;-70
2022/08/01 10:44:37;;;;;;;4.75;1.90;;;;;;;23.26;54.41;101496.09;5120285;28;20032;-68
2022/08/01 10:47:09;;;;;;;5.35;1.75;;;;;;;23.15;53.55;101498.53;5128300;28;20039;-69
2022/08/01 10:49:40;;;;;;;3.97;2.30;;;;;;;23.14;53.94;101496.03;5129784;28;20081;-70
2022/08/01 10:52:06;;;;;;;3.83;1.77;;;;;;;23.10;53.89;101492.94;5114898;28;20061;-71
2022/08/01 10:54:39;;;;;;;4.63;2.03;;;;;;;22.98;54.94;101486.59;5114174;28;20526;-70
2022/08/01 10:57:06;;;;;;;4.13;2.15;;;;;;;22.98;54.79;101481.19;5114368;28;20042;-72
2022/08/01 10:59:33;;;;;;;5.07;2.25;;;;;;;22.98;53.68;101483.06;5113609;28;20031;-71
2022/08/01 11:02:01;;;;;;;7.18;2.03;;;;;;;22.87;54.66;101487.38;5122951;28;20565;-71
2022/08/01 11:05:09;;;;;;;4.65;2.22;;;;;;;22.34;55.18;101485.16;5118721;28;20151;-73
2022/08/01 11:07:45;;;;;;;5.25;1.67;;;;;;;22.13;56.43;101482.84;5113489;28;20135;-73
2022/08/01 11:10:34;;;;;;;7.32;1.88;;;;;;;22.07;53.69;101486.44;5117785;28;20027;-73
2022/08/01 11:13:03;;;;;;;2.20;1.35;;;;;;;22.04;52.77;101484.16;5113209;28;20512;-76
2022/08/01 11:15:29;;;;;;;2.83;1.45;;;;;;;22.00;52.70;101491.06;5114049;28;20036;-74
2022/08/01 11:17:55;;;;;;;7.47;2.38;;;;;;;21.95;53.63;101495.25;5113412;28;20039;-74
2022/08/01 11:20:35;;;;;;;2.67;1.70;;;;;;;21.97;54.39;101486.88;5114332;28;20043;-73
2022/08/01 11:23:00;;;;;;;6.93;1.33;;;;;;;21.88;54.90;101499.88;5114556;28;20050;-74
2022/08/01 11:25:38;;;;;;;11.00;4.30;;;;;;;21.93;55.47;101497.34;5114808;28;20035;-76
2022/08/01 11:28:16;;;;;;;1.67;1.08;;;;;;;21.99;55.50;101503.78;5118769;28;20122;-75